sensor_id;sensor_type;location;lat;lon;timestamp;pressure;altitude;pressure_sealevel;temperature;humidity
17309;BME280;8772;42.804;23.426;2023-07-24T00:00:28;73056.84;;;-140.58;90.17
17309;BME280;8772;42.804;23.426;2023-07-24T00:02:57;73063.00;;;-140.58;90.82
17309;BME280;8772;42.804;23.426;2023-07-24T00:05:23;73069.16;;;-140.58;91.22
17309;BME280;8772;42.804;23.426;2023-07-24T00:07:50;73071.22;;;-140.58;90.67
17309;BME280;8772;42.804;23.426;2023-07-24T00:10:17;73073.28;;;-140.58;90.91
17309;BME280;8772;42.804;23.426;2023-07-24T00:12:44;73071.22;;;-140.58;90.43
17309;BME280;8772;42.804;23.426;2023-07-24T00:15:11;73071.22;;;-140.58;90.60
17309;BME280;8772;42.804;23.426;2023-07-24T00:17:38;73075.31;;;-140.58;90.68
17309;BME280;8772;42.804;23.426;2023-07-24T00:20:07;73077.38;;;-140.58;90.96
17309;BME280;8772;42.804;23.426;2023-07-24T00:22:34;73071.22;;;-140.58;90.70
17309;BME280;8772;42.804;23.426;2023-07-24T00:25:01;73081.47;;;-140.58;91.06
17309;BME280;8772;42.804;23.426;2023-07-24T00:27:27;73083.53;;;-140.58;90.43
17309;BME280;8772;42.804;23.426;2023-07-24T00:29:54;73099.94;;;-140.58;91.17
17309;BME280;8772;42.804;23.426;2023-07-24T00:32:21;73087.63;;;-140.58;91.56
17309;BME280;8772;42.804;23.426;2023-07-24T00:34:48;73099.94;;;-140.58;91.79
17309;BME280;8772;42.804;23.426;2023-07-24T00:37:16;73091.72;;;-140.58;92.00
17309;BME280;8772;42.804;23.426;2023-07-24T00:39:43;73108.13;;;-140.58;93.22
17309;BME280;8772;42.804;23.426;2023-07-24T00:42:10;73120.44;;;-140.58;93.57
17309;BME280;8772;42.804;23.426;2023-07-24T00:44:37;73108.13;;;-140.58;92.20
17309;BME280;8772;42.804;23.426;2023-07-24T00:47:04;73112.25;;;-140.58;92.27
17309;BME280;8772;42.804;23.426;2023-07-24T00:49:31;73106.09;;;-140.58;91.79
17309;BME280;8772;42.804;23.426;2023-07-24T00:51:58;73130.69;;;-140.58;93.04
17309;BME280;8772;42.804;23.426;2023-07-24T00:54:28;73122.50;;;-140.58;94.56
17309;BME280;8772;42.804;23.426;2023-07-24T00:56:57;73120.44;;;-140.58;93.76
17309;BME280;8772;42.804;23.426;2023-07-24T00:59:24;73112.25;;;-140.58;93.44
17309;BME280;8772;42.804;23.426;2023-07-24T01:01:51;73110.19;;;-140.58;92.60
17309;BME280;8772;42.804;23.426;2023-07-24T01:07:40;73108.13;;;-140.58;94.93
17309;BME280;8772;42.804;23.426;2023-07-24T01:10:09;73112.25;;;-140.58;95.25
17309;BME280;8772;42.804;23.426;2023-07-24T01:12:40;73112.25;;;-140.58;96.06
17309;BME280;8772;42.804;23.426;2023-07-24T01:15:13;73106.09;;;-140.58;96.54
17309;BME280;8772;42.804;23.426;2023-07-24T01:17:46;73112.25;;;-140.58;95.22
17309;BME280;8772;42.804;23.426;2023-07-24T01:20:15;73095.81;;;-140.58;94.41
17309;BME280;8772;42.804;23.426;2023-07-24T01:22:52;73110.19;;;-140.58;94.22
17309;BME280;8772;42.804;23.426;2023-07-24T01:25:32;73116.34;;;-140.58;95.72
17309;BME280;8772;42.804;23.426;2023-07-24T01:28:06;73112.25;;;-140.58;96.93
17309;BME280;8772;42.804;23.426;2023-07-24T01:30:34;73118.38;;;-140.58;97.09
17309;BME280;8772;42.804;23.426;2023-07-24T01:33:01;73112.25;;;-140.58;95.78
17309;BME280;8772;42.804;23.426;2023-07-24T01:35:29;73124.53;;;-140.58;95.49
17309;BME280;8772;42.804;23.426;2023-07-24T01:37:57;73130.69;;;-140.58;95.45
17309;BME280;8772;42.804;23.426;2023-07-24T01:40:25;73140.94;;;-140.58;95.90
17309;BME280;8772;42.804;23.426;2023-07-24T01:42:52;73151.22;;;-140.58;97.77
17309;BME280;8772;42.804;23.426;2023-07-24T01:45:20;73155.31;;;-140.58;97.50
17309;BME280;8772;42.804;23.426;2023-07-24T01:47:47;73161.47;;;-140.58;98.34
17309;BME280;8772;42.804;23.426;2023-07-24T01:50:14;73169.66;;;-140.58;98.22
17309;BME280;8772;42.804;23.426;2023-07-24T01:52:41;73165.56;;;-140.58;98.30
17309;BME280;8772;42.804;23.426;2023-07-24T01:55:08;73151.22;;;-140.58;97.58
17309;BME280;8772;42.804;23.426;2023-07-24T01:57:35;73151.22;;;-140.58;96.80
17309;BME280;8772;42.804;23.426;2023-07-24T02:00:02;73145.06;;;-140.58;95.69
17309;BME280;8772;42.804;23.426;2023-07-24T02:02:30;73147.09;;;-140.58;95.46
17309;BME280;8772;42.804;23.426;2023-07-24T02:04:57;73151.22;;;-140.58;95.32
17309;BME280;8772;42.804;23.426;2023-07-24T02:07:24;73140.94;;;-140.58;95.25
17309;BME280;8772;42.804;23.426;2023-07-24T02:09:51;73149.16;;;-140.58;95.46
17309;BME280;8772;42.804;23.426;2023-07-24T02:12:18;73157.34;;;-140.58;96.35
17309;BME280;8772;42.804;23.426;2023-07-24T02:14:45;73165.56;;;-140.58;97.52
17309;BME280;8772;42.804;23.426;2023-07-24T02:17:15;73165.56;;;-140.58;97.36
17309;BME280;8772;42.804;23.426;2023-07-24T02:19:43;73165.56;;;-140.58;97.06
17309;BME280;8772;42.804;23.426;2023-07-24T02:22:10;73163.50;;;-140.58;95.86
17309;BME280;8772;42.804;23.426;2023-07-24T02:24:38;73163.50;;;-140.58;96.11
17309;BME280;8772;42.804;23.426;2023-07-24T02:27:05;73181.97;;;-140.58;96.72
17309;BME280;8772;42.804;23.426;2023-07-24T02:29:33;73194.28;;;-140.58;97.14
17309;BME280;8772;42.804;23.426;2023-07-24T02:32:01;73212.75;;;-140.58;98.83
17309;BME280;8772;42.804;23.426;2023-07-24T02:34:27;73186.06;;;-140.58;97.83
17309;BME280;8772;42.804;23.426;2023-07-24T02:36:56;73188.13;;;-140.58;97.55
17309;BME280;8772;42.804;23.426;2023-07-24T02:39:23;73198.38;;;-140.58;97.24
17309;BME280;8772;42.804;23.426;2023-07-24T02:41:50;73208.63;;;-140.58;97.87
17309;BME280;8772;42.804;23.426;2023-07-24T02:44:17;73210.69;;;-140.58;98.43
17309;BME280;8772;42.804;23.426;2023-07-24T02:46:44;73218.91;;;-140.58;99.01
17309;BME280;8772;42.804;23.426;2023-07-24T02:49:10;73223.00;;;-140.58;99.35
17309;BME280;8772;42.804;23.426;2023-07-24T02:51:37;73220.94;;;-140.58;99.26
17309;BME280;8772;42.804;23.426;2023-07-24T02:54:06;73214.78;;;-140.58;99.04
17309;BME280;8772;42.804;23.426;2023-07-24T02:56:32;73196.34;;;-140.58;97.82
17309;BME280;8772;42.804;23.426;2023-07-24T02:58:59;73202.47;;;-140.58;97.63
17309;BME280;8772;42.804;23.426;2023-07-24T03:01:26;73208.63;;;-140.58;98.47
17309;BME280;8772;42.804;23.426;2023-07-24T03:03:53;73206.59;;;-140.58;98.15
17309;BME280;8772;42.804;23.426;2023-07-24T03:06:20;73223.00;;;-140.58;98.92
17309;BME280;8772;42.804;23.426;2023-07-24T03:08:47;73227.09;;;-140.58;99.15
17309;BME280;8772;42.804;23.426;2023-07-24T03:11:15;73210.69;;;-140.58;98.97
17309;BME280;8772;42.804;23.426;2023-07-24T03:13:42;73214.78;;;-140.58;98.51
17309;BME280;8772;42.804;23.426;2023-07-24T03:16:09;73206.59;;;-140.58;99.34
17309;BME280;8772;42.804;23.426;2023-07-24T03:18:36;73198.38;;;-140.58;99.11
17309;BME280;8772;42.804;23.426;2023-07-24T03:21:03;73198.38;;;-140.58;98.83
17309;BME280;8772;42.804;23.426;2023-07-24T03:23:29;73186.06;;;-140.58;99.84
17309;BME280;8772;42.804;23.426;2023-07-24T03:25:56;73186.06;;;-140.58;99.26
17309;BME280;8772;42.804;23.426;2023-07-24T03:28:25;73173.78;;;-140.58;98.81
17309;BME280;8772;42.804;23.426;2023-07-24T03:30:52;73181.97;;;-140.58;98.52
17309;BME280;8772;42.804;23.426;2023-07-24T03:33:19;73179.91;;;-140.58;98.86
17309;BME280;8772;42.804;23.426;2023-07-24T03:35:46;73179.91;;;-140.58;99.43
17309;BME280;8772;42.804;23.426;2023-07-24T03:38:13;73194.28;;;-140.58;98.73
17309;BME280;8772;42.804;23.426;2023-07-24T03:40:40;73188.13;;;-140.58;98.47
17309;BME280;8772;42.804;23.426;2023-07-24T03:43:07;73190.19;;;-140.58;97.97
17309;BME280;8772;42.804;23.426;2023-07-24T03:45:35;73179.91;;;-140.58;98.09
17309;BME280;8772;42.804;23.426;2023-07-24T03:48:03;73175.81;;;-140.58;98.59
17309;BME280;8772;42.804;23.426;2023-07-24T03:50:30;73173.78;;;-140.58;98.45
17309;BME280;8772;42.804;23.426;2023-07-24T03:52:56;73163.50;;;-140.58;98.46
17309;BME280;8772;42.804;23.426;2023-07-24T03:55:23;73159.41;;;-140.58;98.75
17309;BME280;8772;42.804;23.426;2023-07-24T03:57:50;73155.31;;;-140.58;98.26
17309;BME280;8772;42.804;23.426;2023-07-24T04:00:17;73159.41;;;-140.58;98.06
17309;BME280;8772;42.804;23.426;2023-07-24T04:02:47;73145.06;;;-140.58;97.86
17309;BME280;8772;42.804;23.426;2023-07-24T04:05:14;73128.66;;;-140.58;97.88
17309;BME280;8772;42.804;23.426;2023-07-24T04:07:41;73128.66;;;-140.58;98.12
17309;BME280;8772;42.804;23.426;2023-07-24T04:10:08;73120.44;;;-140.58;98.86
17309;BME280;8772;42.804;23.426;2023-07-24T04:12:35;73112.25;;;-140.58;99.94
17309;BME280;8772;42.804;23.426;2023-07-24T04:15:02;73120.44;;;-140.58;97.04
17309;BME280;8772;42.804;23.426;2023-07-24T04:17:29;73110.19;;;-140.58;97.06
17309;BME280;8772;42.804;23.426;2023-07-24T04:19:59;73095.81;;;-140.58;96.84
17309;BME280;8772;42.804;23.426;2023-07-24T04:22:26;73089.69;;;-140.58;97.75
17309;BME280;8772;42.804;23.426;2023-07-24T04:24:53;73083.53;;;-140.58;98.73
17309;BME280;8772;42.804;23.426;2023-07-24T04:27:19;73075.31;;;-140.58;99.00
17309;BME280;8772;42.804;23.426;2023-07-24T04:29:46;73063.00;;;-140.58;98.89
17309;BME280;8772;42.804;23.426;2023-07-24T04:32:13;73054.81;;;-140.58;100.00
17309;BME280;8772;42.804;23.426;2023-07-24T04:34:40;73052.75;;;-140.58;99.91
17309;BME280;8772;42.804;23.426;2023-07-24T04:37:08;73042.50;;;-140.58;98.70
17309;BME280;8772;42.804;23.426;2023-07-24T04:39:38;73034.31;;;-140.58;97.85
17309;BME280;8772;42.804;23.426;2023-07-24T04:42:05;73017.91;;;-140.58;97.28
17309;BME280;8772;42.804;23.426;2023-07-24T04:44:32;73007.63;;;-140.58;95.26
17309;BME280;8772;42.804;23.426;2023-07-24T04:46:58;72993.28;;;-140.58;95.11
17309;BME280;8772;42.804;23.426;2023-07-24T04:49:28;72980.97;;;-140.58;95.19
17309;BME280;8772;42.804;23.426;2023-07-24T04:51:55;72974.81;;;-140.58;94.39
17309;BME280;8772;42.804;23.426;2023-07-24T04:54:23;72968.66;;;-140.58;93.20
17309;BME280;8772;42.804;23.426;2023-07-24T04:56:50;72972.78;;;-140.58;90.23
17309;BME280;8772;42.804;23.426;2023-07-24T04:59:17;72976.88;;;-140.58;89.54
17309;BME280;8772;42.804;23.426;2023-07-24T05:01:44;72960.47;;;-140.58;90.12
17309;BME280;8772;42.804;23.426;2023-07-24T05:04:11;72946.09;;;-140.58;89.60
17309;BME280;8772;42.804;23.426;2023-07-24T05:06:37;72927.66;;;-140.58;89.56
17309;BME280;8772;42.804;23.426;2023-07-24T05:09:04;72931.75;;;-140.58;90.00
17309;BME280;8772;42.804;23.426;2023-07-24T05:11:33;72913.28;;;-140.58;90.59
17309;BME280;8772;42.804;23.426;2023-07-24T05:14:00;72911.25;;;-140.58;91.02
17309;BME280;8772;42.804;23.426;2023-07-24T05:16:27;72903.03;;;-140.58;91.01
17309;BME280;8772;42.804;23.426;2023-07-24T05:18:53;72886.63;;;-140.58;88.29
17309;BME280;8772;42.804;23.426;2023-07-24T05:21:20;72880.47;;;-140.58;86.47
17309;BME280;8772;42.804;23.426;2023-07-24T05:23:47;72866.13;;;-140.58;87.38
17309;BME280;8772;42.804;23.426;2023-07-24T05:26:14;72845.63;;;-140.58;87.88
17309;BME280;8772;42.804;23.426;2023-07-24T05:28:42;72831.25;;;-140.58;90.12
17309;BME280;8772;42.804;23.426;2023-07-24T05:31:09;72810.75;;;-140.58;85.70
17309;BME280;8772;42.804;23.426;2023-07-24T05:33:36;72796.41;;;-140.58;83.71
17309;BME280;8772;42.804;23.426;2023-07-24T05:36:03;72780.00;;;-140.58;83.35
17309;BME280;8772;42.804;23.426;2023-07-24T05:38:30;72763.59;;;-140.58;82.48
17309;BME280;8772;42.804;23.426;2023-07-24T05:40:58;72745.13;;;-140.58;82.00
17309;BME280;8772;42.804;23.426;2023-07-24T05:43:26;72720.50;;;-140.58;79.45
17309;BME280;8772;42.804;23.426;2023-07-24T05:45:55;72706.16;;;-140.58;79.85
17309;BME280;8772;42.804;23.426;2023-07-24T05:48:23;72695.91;;;-140.58;79.64
17309;BME280;8772;42.804;23.426;2023-07-24T05:50:49;72673.34;;;-140.58;76.82
17309;BME280;8772;42.804;23.426;2023-07-24T05:53:17;72665.16;;;-140.58;75.86
17309;BME280;8772;42.804;23.426;2023-07-24T05:55:44;72648.72;;;-140.58;75.50
17309;BME280;8772;42.804;23.426;2023-07-24T05:58:11;72636.44;;;-140.58;74.21
17309;BME280;8772;42.804;23.426;2023-07-24T06:00:38;72620.03;;;-140.58;73.93
17309;BME280;8772;42.804;23.426;2023-07-24T06:03:06;72620.03;;;-140.58;73.83
17309;BME280;8772;42.804;23.426;2023-07-24T06:05:33;72611.81;;;-140.58;74.35
17309;BME280;8772;42.804;23.426;2023-07-24T06:08:00;72599.53;;;-140.58;73.69
17309;BME280;8772;42.804;23.426;2023-07-24T06:10:27;72593.38;;;-140.58;72.21
17309;BME280;8772;42.804;23.426;2023-07-24T06:12:54;72579.00;;;-140.58;73.25
17309;BME280;8772;42.804;23.426;2023-07-24T06:15:20;72581.06;;;-140.58;73.12
17309;BME280;8772;42.804;23.426;2023-07-24T06:17:47;72574.91;;;-140.58;73.54
17309;BME280;8772;42.804;23.426;2023-07-24T06:20:16;72570.81;;;-140.58;74.27
17309;BME280;8772;42.804;23.426;2023-07-24T06:22:42;72566.72;;;-140.58;72.67
17309;BME280;8772;42.804;23.426;2023-07-24T06:25:09;72554.41;;;-140.58;71.96
17309;BME280;8772;42.804;23.426;2023-07-24T06:27:36;72542.09;;;-140.58;74.21
17309;BME280;8772;42.804;23.426;2023-07-24T06:30:04;72535.94;;;-140.58;70.08
17309;BME280;8772;42.804;23.426;2023-07-24T06:32:31;72515.44;;;-140.58;69.42
17309;BME280;8772;42.804;23.426;2023-07-24T06:34:58;72513.38;;;-140.58;68.85
17309;BME280;8772;42.804;23.426;2023-07-24T06:37:27;72505.19;;;-140.58;66.76
17309;BME280;8772;42.804;23.426;2023-07-24T06:39:53;72494.94;;;-140.58;69.12
17309;BME280;8772;42.804;23.426;2023-07-24T06:42:20;72484.69;;;-140.58;64.71
17309;BME280;8772;42.804;23.426;2023-07-24T06:44:47;72478.53;;;-140.58;64.09
17309;BME280;8772;42.804;23.426;2023-07-24T06:47:14;72478.53;;;-140.58;64.35
17309;BME280;8772;42.804;23.426;2023-07-24T06:49:41;72470.31;;;-140.58;62.51
17309;BME280;8772;42.804;23.426;2023-07-24T06:52:07;72462.13;;;-140.58;65.04
17309;BME280;8772;42.804;23.426;2023-07-24T06:54:36;72460.06;;;-140.58;66.53
17309;BME280;8772;42.804;23.426;2023-07-24T06:57:03;72445.72;;;-140.58;65.69
17309;BME280;8772;42.804;23.426;2023-07-24T06:59:30;72435.47;;;-140.58;64.84
17309;BME280;8772;42.804;23.426;2023-07-24T07:01:56;72427.25;;;-140.58;65.19
17309;BME280;8772;42.804;23.426;2023-07-24T07:04:23;72410.84;;;-140.58;64.75
17309;BME280;8772;42.804;23.426;2023-07-24T07:06:50;72410.84;;;-140.58;60.81
17309;BME280;8772;42.804;23.426;2023-07-24T07:09:17;72390.34;;;-140.58;61.53
17309;BME280;8772;42.804;23.426;2023-07-24T07:11:45;72380.09;;;-140.58;63.28
17309;BME280;8772;42.804;23.426;2023-07-24T07:14:12;72367.78;;;-140.58;61.51
17309;BME280;8772;42.804;23.426;2023-07-24T07:16:39;72355.50;;;-140.58;60.92
17309;BME280;8772;42.804;23.426;2023-07-24T07:19:06;72349.34;;;-140.58;60.93
17309;BME280;8772;42.804;23.426;2023-07-24T07:21:34;72343.19;;;-140.58;58.69
17309;BME280;8772;42.804;23.426;2023-07-24T07:24:01;72332.94;;;-140.58;59.06
17309;BME280;8772;42.804;23.426;2023-07-24T07:26:28;72318.59;;;-140.58;61.58
17309;BME280;8772;42.804;23.426;2023-07-24T07:28:57;72306.28;;;-140.58;57.93
17309;BME280;8772;42.804;23.426;2023-07-24T07:31:24;72296.03;;;-140.58;58.40
17309;BME280;8772;42.804;23.426;2023-07-24T07:33:50;72291.94;;;-140.58;56.79
17309;BME280;8772;42.804;23.426;2023-07-24T07:36:17;72285.78;;;-140.58;57.81
17309;BME280;8772;42.804;23.426;2023-07-24T07:38:44;72269.38;;;-140.58;59.92
17309;BME280;8772;42.804;23.426;2023-07-24T07:41:11;72252.97;;;-140.58;56.72
17309;BME280;8772;42.804;23.426;2023-07-24T07:43:38;72248.88;;;-140.58;56.86
17309;BME280;8772;42.804;23.426;2023-07-24T07:46:06;72242.72;;;-140.58;58.50
17309;BME280;8772;42.804;23.426;2023-07-24T07:48:33;72218.09;;;-140.58;58.34
17309;BME280;8772;42.804;23.426;2023-07-24T07:51:00;72199.66;;;-140.58;57.80
17309;BME280;8772;42.804;23.426;2023-07-24T07:53:26;72189.41;;;-140.58;55.11
17309;BME280;8772;42.804;23.426;2023-07-24T07:55:57;72175.03;;;-140.58;55.95
17309;BME280;8772;42.804;23.426;2023-07-24T07:58:25;72164.78;;;-140.58;55.93
17309;BME280;8772;42.804;23.426;2023-07-24T08:00:52;72160.69;;;-140.58;55.65
17309;BME280;8772;42.804;23.426;2023-07-24T08:03:20;72148.38;;;-140.58;51.08
17309;BME280;8772;42.804;23.426;2023-07-24T08:05:47;72158.66;;;-140.58;50.82
17309;BME280;8772;42.804;23.426;2023-07-24T08:08:14;72136.09;;;-140.58;51.25
17309;BME280;8772;42.804;23.426;2023-07-24T08:10:40;72129.94;;;-140.58;51.54
17309;BME280;8772;42.804;23.426;2023-07-24T08:13:07;72113.53;;;-140.58;52.17
17309;BME280;8772;42.804;23.426;2023-07-24T08:15:35;72095.06;;;-140.58;52.16
17309;BME280;8772;42.804;23.426;2023-07-24T08:18:03;72097.13;;;-140.58;50.99
17309;BME280;8772;42.804;23.426;2023-07-24T08:20:32;72074.56;;;-140.58;52.36
17309;BME280;8772;42.804;23.426;2023-07-24T08:23:01;72054.06;;;-140.58;55.40
17309;BME280;8772;42.804;23.426;2023-07-24T08:25:28;72033.56;;;-140.58;51.04
17309;BME280;8772;42.804;23.426;2023-07-24T08:27:55;72006.91;;;-140.58;53.56
17309;BME280;8772;42.804;23.426;2023-07-24T08:30:21;71984.34;;;-140.58;49.32
17309;BME280;8772;42.804;23.426;2023-07-24T08:32:48;71965.91;;;-140.58;46.57
17309;BME280;8772;42.804;23.426;2023-07-24T08:35:16;71949.50;;;-140.58;49.50
17309;BME280;8772;42.804;23.426;2023-07-24T08:37:44;71922.84;;;-140.58;45.52
17309;BME280;8772;42.804;23.426;2023-07-24T08:40:12;71914.66;;;-140.58;49.47
17309;BME280;8772;42.804;23.426;2023-07-24T08:42:39;71894.16;;;-140.58;44.97
17309;BME280;8772;42.804;23.426;2023-07-24T08:45:11;71861.34;;;-140.58;46.20
17309;BME280;8772;42.804;23.426;2023-07-24T08:47:40;71847.00;;;-140.58;45.64
17309;BME280;8772;42.804;23.426;2023-07-24T08:50:09;71828.53;;;-140.58;46.12
17309;BME280;8772;42.804;23.426;2023-07-24T08:52:36;71801.88;;;-140.58;44.37
17309;BME280;8772;42.804;23.426;2023-07-24T08:55:06;71758.81;;;-140.58;44.18
17309;BME280;8772;42.804;23.426;2023-07-24T08:57:33;71734.22;;;-140.58;43.80
17309;BME280;8772;42.804;23.426;2023-07-24T09:00:00;71721.91;;;-140.58;42.94
17309;BME280;8772;42.804;23.426;2023-07-24T09:02:30;71689.13;;;-140.58;41.54
17309;BME280;8772;42.804;23.426;2023-07-24T09:04:57;71658.38;;;-140.58;45.02
17309;BME280;8772;42.804;23.426;2023-07-24T09:07:24;71625.56;;;-140.58;44.79
17309;BME280;8772;42.804;23.426;2023-07-24T09:09:51;71586.63;;;-140.58;40.45
17309;BME280;8772;42.804;23.426;2023-07-24T09:12:21;71582.50;;;-140.58;37.46
17309;BME280;8772;42.804;23.426;2023-07-24T09:14:48;71531.25;;;-140.58;40.74
17309;BME280;8772;42.804;23.426;2023-07-24T09:17:15;71484.09;;;-140.58;40.67
17309;BME280;8772;42.804;23.426;2023-07-24T09:19:42;71436.97;;;-140.58;38.62
17309;BME280;8772;42.804;23.426;2023-07-24T09:22:10;71393.91;;;-140.58;37.26
17309;BME280;8772;42.804;23.426;2023-07-24T09:24:49;71357.00;;;-140.58;37.58
17309;BME280;8772;42.804;23.426;2023-07-24T09:27:16;71311.91;;;-140.58;37.95
17309;BME280;8772;42.804;23.426;2023-07-24T09:29:44;71262.72;;;-140.58;37.48
17309;BME280;8772;42.804;23.426;2023-07-24T09:32:18;71225.81;;;-140.58;35.38
17309;BME280;8772;42.804;23.426;2023-07-24T09:34:46;71217.63;;;-140.58;33.30
17309;BME280;8772;42.804;23.426;2023-07-24T09:37:23;71203.25;;;-140.58;33.54
17309;BME280;8772;42.804;23.426;2023-07-24T09:39:49;71193.00;;;-140.58;33.89
17309;BME280;8772;42.804;23.426;2023-07-24T09:42:16;71147.91;;;-140.58;34.37
17309;BME280;8772;42.804;23.426;2023-07-24T09:44:44;71115.13;;;-140.58;33.67
17309;BME280;8772;42.804;23.426;2023-07-24T09:47:11;71104.88;;;-140.58;32.60
17309;BME280;8772;42.804;23.426;2023-07-24T09:49:38;71080.28;;;-140.58;31.61
17309;BME280;8772;42.804;23.426;2023-07-24T09:52:09;71070.03;;;-140.58;31.12
17309;BME280;8772;42.804;23.426;2023-07-24T09:54:42;71070.03;;;-140.58;31.50
17309;BME280;8772;42.804;23.426;2023-07-24T09:57:13;71035.19;;;-140.58;32.40
17309;BME280;8772;42.804;23.426;2023-07-24T09:59:40;71082.31;;;-140.58;29.62
17309;BME280;8772;42.804;23.426;2023-07-24T10:02:11;71094.63;;;-140.58;30.55
17309;BME280;8772;42.804;23.426;2023-07-24T10:04:40;71123.31;;;-140.58;31.01
17309;BME280;8772;42.804;23.426;2023-07-24T10:07:06;71106.91;;;-140.58;30.72
17309;BME280;8772;42.804;23.426;2023-07-24T10:09:34;71076.19;;;-140.58;32.85
17309;BME280;8772;42.804;23.426;2023-07-24T10:12:02;71047.47;;;-140.58;33.36
17309;BME280;8772;42.804;23.426;2023-07-24T10:14:29;71102.81;;;-140.58;30.62
17309;BME280;8772;42.804;23.426;2023-07-24T10:16:57;71094.63;;;-140.58;29.15
17309;BME280;8772;42.804;23.426;2023-07-24T10:19:35;71082.31;;;-140.58;32.38
17309;BME280;8772;42.804;23.426;2023-07-24T10:22:02;71053.63;;;-140.58;31.90
17309;BME280;8772;42.804;23.426;2023-07-24T10:24:29;71043.38;;;-140.58;31.89
17309;BME280;8772;42.804;23.426;2023-07-24T10:26:57;71043.38;;;-140.58;29.94
17309;BME280;8772;42.804;23.426;2023-07-24T10:29:24;71059.78;;;-140.58;30.96
17309;BME280;8772;42.804;23.426;2023-07-24T10:31:54;71053.63;;;-140.58;31.05
17309;BME280;8772;42.804;23.426;2023-07-24T10:34:21;71074.13;;;-140.58;30.36
17309;BME280;8772;42.804;23.426;2023-07-24T10:36:49;71086.41;;;-140.58;31.24
17309;BME280;8772;42.804;23.426;2023-07-24T10:39:17;71098.72;;;-140.58;30.66
17309;BME280;8772;42.804;23.426;2023-07-24T10:41:46;71049.53;;;-140.58;32.96
17309;BME280;8772;42.804;23.426;2023-07-24T10:44:13;71018.78;;;-140.58;31.59
17309;BME280;8772;42.804;23.426;2023-07-24T10:46:40;70983.94;;;-140.58;32.89
17309;BME280;8772;42.804;23.426;2023-07-24T10:49:08;70961.38;;;-140.58;32.56
17309;BME280;8772;42.804;23.426;2023-07-24T10:51:36;70955.25;;;-140.58;30.35
17309;BME280;8772;42.804;23.426;2023-07-24T10:54:05;70918.34;;;-140.58;30.95
17309;BME280;8772;42.804;23.426;2023-07-24T10:56:32;70906.03;;;-140.58;32.16
17309;BME280;8772;42.804;23.426;2023-07-24T10:59:03;70934.75;;;-140.58;31.05
17309;BME280;8772;42.804;23.426;2023-07-24T11:01:31;70918.34;;;-140.58;31.37
17309;BME280;8772;42.804;23.426;2023-07-24T11:03:59;70922.44;;;-140.58;31.76
17309;BME280;8772;42.804;23.426;2023-07-24T11:06:26;70910.13;;;-140.58;32.82
17309;BME280;8772;42.804;23.426;2023-07-24T11:08:55;70871.19;;;-140.58;32.04
17309;BME280;8772;42.804;23.426;2023-07-24T11:11:29;70840.44;;;-140.58;32.56
17309;BME280;8772;42.804;23.426;2023-07-24T11:13:56;70803.56;;;-140.58;31.62
17309;BME280;8772;42.804;23.426;2023-07-24T11:16:23;70778.97;;;-140.58;30.80
17309;BME280;8772;42.804;23.426;2023-07-24T11:18:50;70737.97;;;-140.58;31.07
17309;BME280;8772;42.804;23.426;2023-07-24T11:21:18;70762.56;;;-140.58;29.42
17309;BME280;8772;42.804;23.426;2023-07-24T11:23:47;70737.97;;;-140.58;30.48
17309;BME280;8772;42.804;23.426;2023-07-24T11:26:14;70742.06;;;-140.58;31.30
17309;BME280;8772;42.804;23.426;2023-07-24T11:28:43;70731.81;;;-140.58;31.68
17309;BME280;8772;42.804;23.426;2023-07-24T11:31:10;70717.47;;;-140.58;30.08
17309;BME280;8772;42.804;23.426;2023-07-24T11:33:37;70717.47;;;-140.58;28.85
17309;BME280;8772;42.804;23.426;2023-07-24T11:36:05;70725.66;;;-140.58;29.25
17309;BME280;8772;42.804;23.426;2023-07-24T11:38:32;70690.84;;;-140.58;31.09
17309;BME280;8772;42.804;23.426;2023-07-24T11:41:01;70676.47;;;-140.58;29.45
17309;BME280;8772;42.804;23.426;2023-07-24T11:43:28;70680.59;;;-140.58;29.53
17309;BME280;8772;42.804;23.426;2023-07-24T11:45:56;70692.88;;;-140.58;28.90
17309;BME280;8772;42.804;23.426;2023-07-24T11:48:24;70664.19;;;-140.58;30.73
17309;BME280;8772;42.804;23.426;2023-07-24T11:50:52;70668.28;;;-140.58;29.73
17309;BME280;8772;42.804;23.426;2023-07-24T11:53:23;70635.50;;;-140.58;30.10
17309;BME280;8772;42.804;23.426;2023-07-24T11:55:51;70610.91;;;-140.58;29.62
17309;BME280;8772;42.804;23.426;2023-07-24T11:58:19;70641.63;;;-140.58;28.71
17309;BME280;8772;42.804;23.426;2023-07-24T12:00:46;70610.91;;;-140.58;29.24
17309;BME280;8772;42.804;23.426;2023-07-24T12:03:19;70596.56;;;-140.58;29.73
17309;BME280;8772;42.804;23.426;2023-07-24T12:05:47;70574.00;;;-140.58;29.98
17309;BME280;8772;42.804;23.426;2023-07-24T12:08:14;70553.50;;;-140.58;28.69
17309;BME280;8772;42.804;23.426;2023-07-24T12:10:42;70541.22;;;-140.58;29.61
17309;BME280;8772;42.804;23.426;2023-07-24T12:13:09;70547.38;;;-140.58;28.11
17309;BME280;8772;42.804;23.426;2023-07-24T12:15:38;70537.13;;;-140.58;29.57
17309;BME280;8772;42.804;23.426;2023-07-24T12:18:06;70528.91;;;-140.58;29.69
17309;BME280;8772;42.804;23.426;2023-07-24T12:20:35;70516.63;;;-140.58;28.20
17309;BME280;8772;42.804;23.426;2023-07-24T12:23:01;70506.38;;;-140.58;29.00
17309;BME280;8772;42.804;23.426;2023-07-24T12:25:28;70537.13;;;-140.58;27.53
17309;BME280;8772;42.804;23.426;2023-07-24T12:27:55;70582.22;;;-140.58;28.20
17309;BME280;8772;42.804;23.426;2023-07-24T12:30:22;70598.59;;;-140.58;26.61
17309;BME280;8772;42.804;23.426;2023-07-24T12:32:49;70625.25;;;-140.58;27.26
17309;BME280;8772;42.804;23.426;2023-07-24T12:35:16;70625.25;;;-140.58;27.40
17309;BME280;8772;42.804;23.426;2023-07-24T12:37:45;70639.59;;;-140.58;27.89
17309;BME280;8772;42.804;23.426;2023-07-24T12:40:12;70656.00;;;-140.58;27.28
17309;BME280;8772;42.804;23.426;2023-07-24T12:42:39;70668.28;;;-140.58;28.02
17309;BME280;8772;42.804;23.426;2023-07-24T12:45:06;70649.84;;;-140.58;28.39